sensor_id;sensor_type;location;lat;lon;timestamp;pressure;altitude;pressure_sealevel;temperature;humidity
76868;BME280;66168;45.478;11.060;2024-01-07T00:00:08;99020.45;;;10.43;78.79
76868;BME280;66168;45.478;11.060;2024-01-07T00:02:35;99029.67;;;10.45;78.73
76868;BME280;66168;45.478;11.060;2024-01-07T00:05:03;99029.92;;;10.44;78.92
76868;BME280;66168;45.478;11.060;2024-01-07T00:07:31;99030.41;;;10.44;78.87
76868;BME280;66168;45.478;11.060;2024-01-07T00:09:58;99028.05;;;10.42;78.95
76868;BME280;66168;45.478;11.060;2024-01-07T00:12:28;99030.39;;;10.41;79.12
76868;BME280;66168;45.478;11.060;2024-01-07T00:14:55;99033.18;;;10.40;79.20
76868;BME280;66168;45.478;11.060;2024-01-07T00:17:21;99029.59;;;10.39;79.19
76868;BME280;66168;45.478;11.060;2024-01-07T00:19:48;99033.86;;;10.40;79.20
76868;BME280;66168;45.478;11.060;2024-01-07T00:22:15;99035.17;;;10.41;79.15
76868;BME280;66168;45.478;11.060;2024-01-07T00:24:42;99036.80;;;10.40;79.14
76868;BME280;66168;45.478;11.060;2024-01-07T00:27:09;99035.02;;;10.39;79.12
76868;BME280;66168;45.478;11.060;2024-01-07T00:29:35;99033.60;;;10.39;78.90
76868;BME280;66168;45.478;11.060;2024-01-07T00:32:03;99035.70;;;10.40;78.81
76868;BME280;66168;45.478;11.060;2024-01-07T00:34:31;99036.92;;;10.41;78.78
76868;BME280;66168;45.478;11.060;2024-01-07T00:36:58;99038.77;;;10.40;79.00
76868;BME280;66168;45.478;11.060;2024-01-07T00:39:25;99035.42;;;10.40;78.86
76868;BME280;66168;45.478;11.060;2024-01-07T00:41:54;99036.04;;;10.41;78.73
76868;BME280;66168;45.478;11.060;2024-01-07T00:44:21;99035.42;;;10.40;78.64
76868;BME280;66168;45.478;11.060;2024-01-07T00:46:51;99037.75;;;10.40;78.67
76868;BME280;66168;45.478;11.060;2024-01-07T00:49:18;99034.66;;;10.38;78.45
76868;BME280;66168;45.478;11.060;2024-01-07T00:51:45;99043.17;;;10.38;78.33
76868;BME280;66168;45.478;11.060;2024-01-07T00:54:15;99043.94;;;10.39;78.42
76868;BME280;66168;45.478;11.060;2024-01-07T00:56:41;99040.30;;;10.38;78.45
76868;BME280;66168;45.478;11.060;2024-01-07T00:59:08;99043.06;;;10.36;78.81
76868;BME280;66168;45.478;11.060;2024-01-07T01:01:37;99051.97;;;10.35;78.80
76868;BME280;66168;45.478;11.060;2024-01-07T01:04:05;99044.98;;;10.34;78.76
76868;BME280;66168;45.478;11.060;2024-01-07T01:06:32;99048.88;;;10.31;78.29
76868;BME280;66168;45.478;11.060;2024-01-07T01:08:59;99057.64;;;10.30;78.37
76868;BME280;66168;45.478;11.060;2024-01-07T01:11:25;99057.15;;;10.29;78.45
76868;BME280;66168;45.478;11.060;2024-01-07T01:13:55;99058.67;;;10.28;78.39
76868;BME280;66168;45.478;11.060;2024-01-07T01:16:22;99062.60;;;10.27;78.50
76868;BME280;66168;45.478;11.060;2024-01-07T01:18:51;99065.64;;;10.26;78.69
76868;BME280;66168;45.478;11.060;2024-01-07T01:21:18;99067.98;;;10.23;78.82
76868;BME280;66168;45.478;11.060;2024-01-07T01:23:46;99071.28;;;10.22;78.99
76868;BME280;66168;45.478;11.060;2024-01-07T01:26:14;99072.64;;;10.21;78.92
76868;BME280;66168;45.478;11.060;2024-01-07T01:28:42;99073.33;;;10.22;78.85
76868;BME280;66168;45.478;11.060;2024-01-07T01:31:12;99074.67;;;10.22;79.06
76868;BME280;66168;45.478;11.060;2024-01-07T01:33:40;99073.13;;;10.23;79.20
76868;BME280;66168;45.478;11.060;2024-01-07T01:36:08;99072.87;;;10.23;79.31
76868;BME280;66168;45.478;11.060;2024-01-07T01:38:37;99073.45;;;10.22;79.14
76868;BME280;66168;45.478;11.060;2024-01-07T01:41:04;99069.87;;;10.21;79.27
76868;BME280;66168;45.478;11.060;2024-01-07T01:43:31;99070.48;;;10.20;79.21
76868;BME280;66168;45.478;11.060;2024-01-07T01:45:58;99073.80;;;10.19;79.35
76868;BME280;66168;45.478;11.060;2024-01-07T01:48:26;99073.15;;;10.20;79.16
76868;BME280;66168;45.478;11.060;2024-01-07T01:50:55;99073.88;;;10.20;79.37
76868;BME280;66168;45.478;11.060;2024-01-07T01:53:25;99075.11;;;10.20;79.39
76868;BME280;66168;45.478;11.060;2024-01-07T01:55:55;99074.33;;;10.19;79.38
76868;BME280;66168;45.478;11.060;2024-01-07T01:58:24;99075.34;;;10.18;79.45
76868;BME280;66168;45.478;11.060;2024-01-07T02:00:50;99075.57;;;10.17;79.39
76868;BME280;66168;45.478;11.060;2024-01-07T02:03:18;99079.41;;;10.16;79.50
76868;BME280;66168;45.478;11.060;2024-01-07T02:05:48;99079.28;;;10.16;79.36
76868;BME280;66168;45.478;11.060;2024-01-07T02:08:15;99072.27;;;10.14;79.29
76868;BME280;66168;45.478;11.060;2024-01-07T02:10:42;99066.54;;;10.14;79.04
76868;BME280;66168;45.478;11.060;2024-01-07T02:13:09;99069.77;;;10.14;79.16
76868;BME280;66168;45.478;11.060;2024-01-07T02:15:36;99066.77;;;10.14;79.21
76868;BME280;66168;45.478;11.060;2024-01-07T02:18:03;99066.36;;;10.11;79.36
76868;BME280;66168;45.478;11.060;2024-01-07T02:20:30;99064.08;;;10.11;79.16
76868;BME280;66168;45.478;11.060;2024-01-07T02:23:00;99061.88;;;10.10;79.17
76868;BME280;66168;45.478;11.060;2024-01-07T02:25:27;99063.44;;;10.08;79.21
76868;BME280;66168;45.478;11.060;2024-01-07T02:27:54;99061.84;;;10.08;79.21
76868;BME280;66168;45.478;11.060;2024-01-07T02:30:21;99058.55;;;10.08;79.30
76868;BME280;66168;45.478;11.060;2024-01-07T02:32:49;99055.91;;;10.09;79.19
76868;BME280;66168;45.478;11.060;2024-01-07T02:35:16;99055.84;;;10.07;79.13
76868;BME280;66168;45.478;11.060;2024-01-07T02:37:43;99058.79;;;10.06;79.32
76868;BME280;66168;45.478;11.060;2024-01-07T02:40:10;99059.84;;;10.04;79.36
76868;BME280;66168;45.478;11.060;2024-01-07T02:42:38;99059.23;;;10.02;79.57
76868;BME280;66168;45.478;11.060;2024-01-07T02:45:05;99054.67;;;10.03;79.35
76868;BME280;66168;45.478;11.060;2024-01-07T02:47:32;99047.77;;;10.03;79.26
76868;BME280;66168;45.478;11.060;2024-01-07T02:49:58;99047.84;;;10.04;79.39
76868;BME280;66168;45.478;11.060;2024-01-07T02:52:25;99043.14;;;10.04;79.06
76868;BME280;66168;45.478;11.060;2024-01-07T02:54:52;99039.86;;;10.01;79.12
76868;BME280;66168;45.478;11.060;2024-01-07T02:57:19;99043.70;;;9.98;79.50
76868;BME280;66168;45.478;11.060;2024-01-07T03:02:32;99042.24;;;9.98;79.49
76868;BME280;66168;45.478;11.060;2024-01-07T03:04:59;99041.30;;;9.98;79.39
76868;BME280;66168;45.478;11.060;2024-01-07T03:07:26;99038.89;;;9.97;79.39
76868;BME280;66168;45.478;11.060;2024-01-07T03:09:53;99036.11;;;9.97;79.64
76868;BME280;66168;45.478;11.060;2024-01-07T03:12:19;99035.05;;;9.97;79.50
76868;BME280;66168;45.478;11.060;2024-01-07T03:14:47;99032.59;;;9.97;79.55
76868;BME280;66168;45.478;11.060;2024-01-07T03:17:13;99032.23;;;9.97;79.47
76868;BME280;66168;45.478;11.060;2024-01-07T03:19:41;99030.55;;;9.96;79.35
76868;BME280;66168;45.478;11.060;2024-01-07T03:22:08;99028.27;;;9.95;79.44
76868;BME280;66168;45.478;11.060;2024-01-07T03:24:37;99030.40;;;9.93;79.45
76868;BME280;66168;45.478;11.060;2024-01-07T03:27:04;99028.70;;;9.92;79.53
76868;BME280;66168;45.478;11.060;2024-01-07T03:29:30;99031.77;;;9.90;79.60
76868;BME280;66168;45.478;11.060;2024-01-07T03:31:57;99032.73;;;9.89;79.44
76868;BME280;66168;45.478;11.060;2024-01-07T03:34:24;99033.15;;;9.89;79.41
76868;BME280;66168;45.478;11.060;2024-01-07T03:36:51;99040.26;;;9.89;79.30
76868;BME280;66168;45.478;11.060;2024-01-07T03:39:18;99038.54;;;9.88;79.16
76868;BME280;66168;45.478;11.060;2024-01-07T03:41:45;99042.39;;;9.87;79.20
76868;BME280;66168;45.478;11.060;2024-01-07T03:44:11;99047.98;;;9.88;79.04
76868;BME280;66168;45.478;11.060;2024-01-07T03:46:38;99049.59;;;9.87;79.07
76868;BME280;66168;45.478;11.060;2024-01-07T03:49:05;99050.08;;;9.86;79.15
76868;BME280;66168;45.478;11.060;2024-01-07T03:51:32;99051.88;;;9.86;79.09
76868;BME280;66168;45.478;11.060;2024-01-07T03:53:59;99051.19;;;9.86;78.98
76868;BME280;66168;45.478;11.060;2024-01-07T03:56:26;99049.09;;;9.86;79.13
76868;BME280;66168;45.478;11.060;2024-01-07T03:58:52;99047.62;;;9.87;79.19
76868;BME280;66168;45.478;11.060;2024-01-07T04:01:19;99047.79;;;9.87;79.13
76868;BME280;66168;45.478;11.060;2024-01-07T04:03:46;99050.40;;;9.87;79.03
76868;BME280;66168;45.478;11.060;2024-01-07T04:06:13;99049.58;;;9.88;78.82
76868;BME280;66168;45.478;11.060;2024-01-07T04:08:40;99049.05;;;9.88;78.92
76868;BME280;66168;45.478;11.060;2024-01-07T04:11:07;99054.89;;;9.88;78.89
76868;BME280;66168;45.478;11.060;2024-01-07T04:13:34;99061.14;;;9.88;78.73
76868;BME280;66168;45.478;11.060;2024-01-07T04:16:01;99061.23;;;9.87;78.87
76868;BME280;66168;45.478;11.060;2024-01-07T04:18:28;99059.27;;;9.87;78.82
76868;BME280;66168;45.478;11.060;2024-01-07T04:20:55;99057.84;;;9.86;78.81
76868;BME280;66168;45.478;11.060;2024-01-07T04:23:22;99052.94;;;9.84;78.45
76868;BME280;66168;45.478;11.060;2024-01-07T04:25:49;99056.96;;;9.82;78.68
76868;BME280;66168;45.478;11.060;2024-01-07T04:28:16;99059.13;;;9.82;78.38
76868;BME280;66168;45.478;11.060;2024-01-07T04:30:42;99060.51;;;9.82;78.28
76868;BME280;66168;45.478;11.060;2024-01-07T04:33:11;99059.36;;;9.84;78.19
76868;BME280;66168;45.478;11.060;2024-01-07T04:35:38;99060.79;;;9.85;77.88
76868;BME280;66168;45.478;11.060;2024-01-07T04:38:05;99065.06;;;9.86;78.02
76868;BME280;66168;45.478;11.060;2024-01-07T04:40:32;99068.70;;;9.87;78.07
76868;BME280;66168;45.478;11.060;2024-01-07T04:42:58;99069.58;;;9.82;78.08
76868;BME280;66168;45.478;11.060;2024-01-07T04:45:25;99069.80;;;9.79;78.20
76868;BME280;66168;45.478;11.060;2024-01-07T04:47:52;99069.42;;;9.78;78.36
76868;BME280;66168;45.478;11.060;2024-01-07T04:50:19;99070.04;;;9.77;78.49
76868;BME280;66168;45.478;11.060;2024-01-07T04:52:46;99073.96;;;9.77;78.54
76868;BME280;66168;45.478;11.060;2024-01-07T04:55:13;99071.39;;;9.78;78.69
76868;BME280;66168;45.478;11.060;2024-01-07T04:57:40;99072.89;;;9.79;78.68
76868;BME280;66168;45.478;11.060;2024-01-07T05:00:08;99074.69;;;9.81;78.57
76868;BME280;66168;45.478;11.060;2024-01-07T05:02:35;99071.14;;;9.80;78.25
76868;BME280;66168;45.478;11.060;2024-01-07T05:05:02;99077.62;;;9.72;78.44
76868;BME280;66168;45.478;11.060;2024-01-07T05:07:29;99076.80;;;9.65;78.91
76868;BME280;66168;45.478;11.060;2024-01-07T05:09:56;99082.77;;;9.66;79.13
76868;BME280;66168;45.478;11.060;2024-01-07T05:12:23;99081.29;;;9.67;78.92
76868;BME280;66168;45.478;11.060;2024-01-07T05:14:53;99080.73;;;9.69;78.90
76868;BME280;66168;45.478;11.060;2024-01-07T05:17:20;99080.14;;;9.69;79.02
76868;BME280;66168;45.478;11.060;2024-01-07T05:19:47;99083.49;;;9.69;79.06
76868;BME280;66168;45.478;11.060;2024-01-07T05:22:14;99083.98;;;9.70;79.23
76868;BME280;66168;45.478;11.060;2024-01-07T05:24:41;99086.55;;;9.70;79.15
76868;BME280;66168;45.478;11.060;2024-01-07T05:27:08;99087.58;;;9.72;78.92
76868;BME280;66168;45.478;11.060;2024-01-07T05:29:36;99091.46;;;9.73;78.88
76868;BME280;66168;45.478;11.060;2024-01-07T05:32:03;99093.23;;;9.74;78.67
76868;BME280;66168;45.478;11.060;2024-01-07T05:34:32;99099.48;;;9.77;78.63
76868;BME280;66168;45.478;11.060;2024-01-07T05:36:59;99101.57;;;9.77;78.47
76868;BME280;66168;45.478;11.060;2024-01-07T05:39:26;99108.77;;;9.74;78.40
76868;BME280;66168;45.478;11.060;2024-01-07T05:41:52;99109.31;;;9.68;78.33
76868;BME280;66168;45.478;11.060;2024-01-07T05:44:19;99108.95;;;9.62;78.63
76868;BME280;66168;45.478;11.060;2024-01-07T05:46:46;99113.26;;;9.58;78.57
76868;BME280;66168;45.478;11.060;2024-01-07T05:49:13;99113.49;;;9.53;78.80
76868;BME280;66168;45.478;11.060;2024-01-07T05:51:40;99115.54;;;9.51;79.08
76868;BME280;66168;45.478;11.060;2024-01-07T05:54:09;99115.36;;;9.51;79.29
76868;BME280;66168;45.478;11.060;2024-01-07T05:56:39;99115.62;;;9.51;79.35
76868;BME280;66168;45.478;11.060;2024-01-07T05:59:07;99117.77;;;9.54;79.40
76868;BME280;66168;45.478;11.060;2024-01-07T06:01:34;99122.84;;;9.56;79.09
76868;BME280;66168;45.478;11.060;2024-01-07T06:04:02;99123.53;;;9.57;79.07
76868;BME280;66168;45.478;11.060;2024-01-07T06:06:29;99129.86;;;9.56;79.25
76868;BME280;66168;45.478;11.060;2024-01-07T06:08:56;99131.49;;;9.56;79.33
76868;BME280;66168;45.478;11.060;2024-01-07T06:11:23;99128.40;;;9.57;79.38
76868;BME280;66168;45.478;11.060;2024-01-07T06:13:50;99128.23;;;9.57;79.04
76868;BME280;66168;45.478;11.060;2024-01-07T06:16:20;99132.06;;;9.57;78.92
76868;BME280;66168;45.478;11.060;2024-01-07T06:18:47;99129.58;;;9.57;79.01
76868;BME280;66168;45.478;11.060;2024-01-07T06:21:14;99135.41;;;9.57;78.95
76868;BME280;66168;45.478;11.060;2024-01-07T06:23:41;99138.73;;;9.58;78.88
76868;BME280;66168;45.478;11.060;2024-01-07T06:26:08;99142.64;;;9.59;79.09
76868;BME280;66168;45.478;11.060;2024-01-07T06:28:35;99143.98;;;9.58;78.78
76868;BME280;66168;45.478;11.060;2024-01-07T06:31:04;99151.17;;;9.50;78.65
76868;BME280;66168;45.478;11.060;2024-01-07T06:33:31;99156.36;;;9.42;78.79
76868;BME280;66168;45.478;11.060;2024-01-07T06:36:00;99154.16;;;9.39;78.86
76868;BME280;66168;45.478;11.060;2024-01-07T06:38:28;99154.57;;;9.38;79.07
76868;BME280;66168;45.478;11.060;2024-01-07T06:40:55;99155.02;;;9.39;79.11
76868;BME280;66168;45.478;11.060;2024-01-07T06:43:27;99160.13;;;9.40;78.69
76868;BME280;66168;45.478;11.060;2024-01-07T06:45:54;99166.33;;;9.42;78.67
76868;BME280;66168;45.478;11.060;2024-01-07T06:48:21;99176.04;;;9.44;78.49
76868;BME280;66168;45.478;11.060;2024-01-07T06:50:48;99177.39;;;9.47;78.55
76868;BME280;66168;45.478;11.060;2024-01-07T06:53:15;99180.30;;;9.49;78.68
76868;BME280;66168;45.478;11.060;2024-01-07T06:55:43;99178.45;;;9.48;78.57
76868;BME280;66168;45.478;11.060;2024-01-07T06:58:12;99182.08;;;9.48;78.60
76868;BME280;66168;45.478;11.060;2024-01-07T07:00:39;99184.81;;;9.47;78.49
76868;BME280;66168;45.478;11.060;2024-01-07T07:03:08;99188.16;;;9.47;78.52
76868;BME280;66168;45.478;11.060;2024-01-07T07:05:35;99193.44;;;9.49;78.44
76868;BME280;66168;45.478;11.060;2024-01-07T07:08:02;99194.91;;;9.49;78.54
76868;BME280;66168;45.478;11.060;2024-01-07T07:10:29;99203.02;;;9.49;78.67
76868;BME280;66168;45.478;11.060;2024-01-07T07:12:58;99199.31;;;9.49;78.65
76868;BME280;66168;45.478;11.060;2024-01-07T07:15:25;99197.52;;;9.48;78.83
76868;BME280;66168;45.478;11.060;2024-01-07T07:17:55;99201.42;;;9.47;78.67
76868;BME280;66168;45.478;11.060;2024-01-07T07:20:22;99205.88;;;9.48;78.20
76868;BME280;66168;45.478;11.060;2024-01-07T07:22:49;99211.56;;;9.48;78.18
76868;BME280;66168;45.478;11.060;2024-01-07T07:25:17;99216.22;;;9.49;78.13
76868;BME280;66168;45.478;11.060;2024-01-07T07:27:44;99224.70;;;9.51;78.36
76868;BME280;66168;45.478;11.060;2024-01-07T07:30:11;99228.79;;;9.52;78.46
76868;BME280;66168;45.478;11.060;2024-01-07T07:32:41;99223.73;;;9.52;78.59
76868;BME280;66168;45.478;11.060;2024-01-07T07:35:08;99232.17;;;9.54;78.57
76868;BME280;66168;45.478;11.060;2024-01-07T07:37:35;99234.88;;;9.56;78.63
76868;BME280;66168;45.478;11.060;2024-01-07T07:40:03;99238.27;;;9.57;78.72
76868;BME280;66168;45.478;11.060;2024-01-07T07:42:30;99239.48;;;9.58;78.75
76868;BME280;66168;45.478;11.060;2024-01-07T07:44:58;99241.41;;;9.60;78.71
76868;BME280;66168;45.478;11.060;2024-01-07T07:47:24;99241.44;;;9.61;78.54
76868;BME280;66168;45.478;11.060;2024-01-07T07:49:51;99243.17;;;9.63;78.46
76868;BME280;66168;45.478;11.060;2024-01-07T07:52:18;99244.67;;;9.64;78.25
76868;BME280;66168;45.478;11.060;2024-01-07T07:54:48;99245.94;;;9.64;78.49
76868;BME280;66168;45.478;11.060;2024-01-07T07:57:16;99248.02;;;9.65;78.53
76868;BME280;66168;45.478;11.060;2024-01-07T07:59:42;99249.91;;;9.64;78.43
76868;BME280;66168;45.478;11.060;2024-01-07T08:02:09;99249.19;;;9.64;78.45
76868;BME280;66168;45.478;11.060;2024-01-07T08:04:36;99251.37;;;9.65;78.46
76868;BME280;66168;45.478;11.060;2024-01-07T08:07:03;99250.06;;;9.68;78.50
76868;BME280;66168;45.478;11.060;2024-01-07T08:09:30;99250.14;;;9.70;78.41
76868;BME280;66168;45.478;11.060;2024-01-07T08:11:57;99251.83;;;9.72;78.37
76868;BME280;66168;45.478;11.060;2024-01-07T08:14:24;99250.89;;;9.73;78.58
76868;BME280;66168;45.478;11.060;2024-01-07T08:16:51;99253.09;;;9.75;78.51
76868;BME280;66168;45.478;11.060;2024-01-07T08:19:18;99258.58;;;9.75;78.39
76868;BME280;66168;45.478;11.060;2024-01-07T08:21:47;99263.27;;;9.76;78.50
76868;BME280;66168;45.478;11.060;2024-01-07T08:24:13;99270.48;;;9.77;78.37
76868;BME280;66168;45.478;11.060;2024-01-07T08:26:40;99272.58;;;9.78;78.73
76868;BME280;66168;45.478;11.060;2024-01-07T08:29:07;99271.30;;;9.79;78.61
76868;BME280;66168;45.478;11.060;2024-01-07T08:31:34;99270.73;;;9.80;78.56
76868;BME280;66168;45.478;11.060;2024-01-07T08:34:01;99271.26;;;9.80;78.74
76868;BME280;66168;45.478;11.060;2024-01-07T08:36:28;99270.68;;;9.80;78.71
76868;BME280;66168;45.478;11.060;2024-01-07T08:38:56;99269.02;;;9.79;78.72
76868;BME280;66168;45.478;11.060;2024-01-07T08:41:22;99277.31;;;9.78;78.98
76868;BME280;66168;45.478;11.060;2024-01-07T08:43:49;99277.48;;;9.78;79.09
76868;BME280;66168;45.478;11.060;2024-01-07T08:46:16;99270.64;;;9.78;78.60
76868;BME280;66168;45.478;11.060;2024-01-07T08:48:43;99278.48;;;9.77;78.51
76868;BME280;66168;45.478;11.060;2024-01-07T08:51:10;99286.42;;;9.79;78.99
76868;BME280;66168;45.478;11.060;2024-01-07T08:53:37;99286.30;;;9.81;78.91
76868;BME280;66168;45.478;11.060;2024-01-07T08:56:04;99290.66;;;9.84;78.81
76868;BME280;66168;45.478;11.060;2024-01-07T08:58:31;99297.79;;;9.85;78.92
76868;BME280;66168;45.478;11.060;2024-01-07T09:00:57;99297.40;;;9.86;78.64
76868;BME280;66168;45.478;11.060;2024-01-07T09:03:24;99298.89;;;9.88;78.62
76868;BME280;66168;45.478;11.060;2024-01-07T09:05:51;99298.02;;;9.89;78.76
76868;BME280;66168;45.478;11.060;2024-01-07T09:08:18;99299.01;;;9.88;78.71
76868;BME280;66168;45.478;11.060;2024-01-07T09:10:45;99302.43;;;9.86;79.07
76868;BME280;66168;45.478;11.060;2024-01-07T09:13:12;99299.70;;;9.81;78.84
76868;BME280;66168;45.478;11.060;2024-01-07T09:15:39;99302.75;;;9.75;79.12
76868;BME280;66168;45.478;11.060;2024-01-07T09:18:08;99305.33;;;9.71;79.47
76868;BME280;66168;45.478;11.060;2024-01-07T09:20:35;99305.05;;;9.72;79.50
76868;BME280;66168;45.478;11.060;2024-01-07T09:23:02;99307.00;;;9.75;79.44
76868;BME280;66168;45.478;11.060;2024-01-07T09:25:29;99308.02;;;9.77;79.60
76868;BME280;66168;45.478;11.060;2024-01-07T09:27:56;99313.01;;;9.79;79.89
76868;BME280;66168;45.478;11.060;2024-01-07T09:30:25;99312.39;;;9.79;79.52
76868;BME280;66168;45.478;11.060;2024-01-07T09:32:52;99313.09;;;9.80;79.06
76868;BME280;66168;45.478;11.060;2024-01-07T09:35:19;99316.94;;;9.83;78.90
76868;BME280;66168;45.478;11.060;2024-01-07T09:37:46;99319.52;;;9.85;78.91
76868;BME280;66168;45.478;11.060;2024-01-07T09:40:17;99319.39;;;9.85;78.86
76868;BME280;66168;45.478;11.060;2024-01-07T09:42:46;99318.16;;;9.88;79.09
76868;BME280;66168;45.478;11.060;2024-01-07T09:45:14;99320.53;;;9.91;79.18
76868;BME280;66168;45.478;11.060;2024-01-07T09:47:41;99328.42;;;9.97;79.04
76868;BME280;66168;45.478;11.060;2024-01-07T09:50:11;99325.56;;;10.00;79.10
76868;BME280;66168;45.478;11.060;2024-01-07T09:52:38;99325.23;;;10.01;78.64
76868;BME280;66168;45.478;11.060;2024-01-07T09:55:12;99326.88;;;10.00;78.79
76868;BME280;66168;45.478;11.060;2024-01-07T09:57:44;99325.24;;;10.01;79.03
76868;BME280;66168;45.478;11.060;2024-01-07T10:00:14;99320.58;;;10.00;78.70
76868;BME280;66168;45.478;11.060;2024-01-07T10:02:41;99321.96;;;9.96;79.05
76868;BME280;66168;45.478;11.060;2024-01-07T10:05:08;99318.61;;;9.95;79.29
76868;BME280;66168;45.478;11.060;2024-01-07T10:07:35;99321.02;;;9.93;79.36
76868;BME280;66168;45.478;11.060;2024-01-07T10:10:14;99318.39;;;9.91;79.62
76868;BME280;66168;45.478;11.060;2024-01-07T10:12:44;99321.55;;;9.89;79.92
76868;BME280;66168;45.478;11.060;2024-01-07T10:15:12;99322.98;;;9.86;80.12
76868;BME280;66168;45.478;11.060;2024-01-07T10:17:45;99320.27;;;9.86;79.46
76868;BME280;66168;45.478;11.060;2024-01-07T10:20:12;99321.11;;;9.88;79.49
76868;BME280;66168;45.478;11.060;2024-01-07T10:22:40;99316.61;;;9.93;79.74
76868;BME280;66168;45.478;11.060;2024-01-07T10:25:06;99314.09;;;9.97;79.61
76868;BME280;66168;45.478;11.060;2024-01-07T10:27:35;99313.67;;;10.00;79.72
76868;BME280;66168;45.478;11.060;2024-01-07T10:30:03;99315.39;;;9.99;79.87
76868;BME280;66168;45.478;11.060;2024-01-07T10:32:30;99316.87;;;9.98;79.84
76868;BME280;66168;45.478;11.060;2024-01-07T10:35:06;99313.52;;;9.98;79.72
76868;BME280;66168;45.478;11.060;2024-01-07T10:37:33;99314.90;;;9.96;79.57
76868;BME280;66168;45.478;11.060;2024-01-07T10:40:00;99315.02;;;9.96;79.52
76868;BME280;66168;45.478;11.060;2024-01-07T10:42:33;99311.84;;;10.00;79.61
76868;BME280;66168;45.478;11.060;2024-01-07T10:45:01;99312.05;;;10.04;79.58
76868;BME280;66168;45.478;11.060;2024-01-07T10:47:30;99312.85;;;10.05;78.70
76868;BME280;66168;45.478;11.060;2024-01-07T10:49:58;99311.63;;;10.06;79.15
76868;BME280;66168;45.478;11.060;2024-01-07T10:52:29;99302.44;;;10.05;79.03
76868;BME280;66168;45.478;11.060;2024-01-07T10:54:56;99299.73;;;10.01;78.97
76868;BME280;66168;45.478;11.060;2024-01-07T10:57:34;99301.09;;;9.98;79.54
76868;BME280;66168;45.478;11.060;2024-01-07T11:00:05;99294.14;;;10.00;79.84
76868;BME280;66168;45.478;11.060;2024-01-07T11:02:44;99287.73;;;10.03;79.61
76868;BME280;66168;45.478;11.060;2024-01-07T11:05:27;99290.58;;;10.05;79.91
76868;BME280;66168;45.478;11.060;2024-01-07T11:08:20;99285.23;;;10.08;79.90
76868;BME280;66168;45.478;11.060;2024-01-07T11:10:55;99284.24;;;10.09;80.24
76868;BME280;66168;45.478;11.060;2024-01-07T11:13:32;99282.78;;;10.13;80.17
76868;BME280;66168;45.478;11.060;2024-01-07T11:16:01;99278.96;;;10.17;80.15
76868;BME280;66168;45.478;11.060;2024-01-07T11:18:28;99274.45;;;10.20;80.04
76868;BME280;66168;45.478;11.060;2024-01-07T11:21:01;99271.15;;;10.23;80.09
76868;BME280;66168;45.478;11.060;2024-01-07T11:23:29;99269.15;;;10.27;80.12
76868;BME280;66168;45.478;11.060;2024-01-07T11:25:57;99265.73;;;10.31;79.82
76868;BME280;66168;45.478;11.060;2024-01-07T11:28:47;99261.55;;;10.34;79.49
76868;BME280;66168;45.478;11.060;2024-01-07T11:31:15;99257.84;;;10.35;79.62
76868;BME280;66168;45.478;11.060;2024-01-07T11:33:47;99252.04;;;10.37;79.41
76868;BME280;66168;45.478;11.060;2024-01-07T11:36:16;99250.73;;;10.37;79.15
76868;BME280;66168;45.478;11.060;2024-01-07T11:38:44;99252.20;;;10.37;79.26
76868;BME280;66168;45.478;11.060;2024-01-07T11:41:18;99251.25;;;10.37;79.22
76868;BME280;66168;45.478;11.060;2024-01-07T11:43:57;99253.79;;;10.35;79.32
76868;BME280;66168;45.478;11.060;2024-01-07T11:46:32;99254.54;;;10.30;79.05
76868;BME280;66168;45.478;11.060;2024-01-07T11:48:59;99251.66;;;10.16;79.59
76868;BME280;66168;45.478;11.060;2024-01-07T11:51:31;99253.23;;;10.10;79.64
76868;BME280;66168;45.478;11.060;2024-01-07T11:53:59;99250.63;;;10.11;80.15
76868;BME280;66168;45.478;11.060;2024-01-07T11:56:28;99249.52;;;10.09;80.88
76868;BME280;66168;45.478;11.060;2024-01-07T11:58:55;99249.19;;;10.05;81.00
76868;BME280;66168;45.478;11.060;2024-01-07T12:01:23;99247.67;;;10.06;80.88
76868;BME280;66168;45.478;11.060;2024-01-07T12:03:52;99247.27;;;10.12;80.78
76868;BME280;66168;45.478;11.060;2024-01-07T12:06:20;99248.55;;;10.18;80.78
76868;BME280;66168;45.478;11.060;2024-01-07T12:08:47;99249.61;;;10.23;80.80
76868;BME280;66168;45.478;11.060;2024-01-07T12:11:15;99248.71;;;10.26;81.04
76868;BME280;66168;45.478;11.060;2024-01-07T12:13:42;99246.94;;;10.29;80.49
76868;BME280;66168;45.478;11.060;2024-01-07T12:16:10;99243.75;;;10.27;80.03
76868;BME280;66168;45.478;11.060;2024-01-07T12:18:40;99239.67;;;10.24;80.15
76868;BME280;66168;45.478;11.060;2024-01-07T12:21:09;99237.30;;;10.23;80.03
76868;BME280;66168;45.478;11.060;2024-01-07T12:23:38;99243.08;;;10.21;80.32
76868;BME280;66168;45.478;11.060;2024-01-07T12:26:11;99239.60;;;10.20;80.67
76868;BME280;66168;45.478;11.060;2024-01-07T12:28:38;99244.09;;;10.22;80.70
76868;BME280;66168;45.478;11.060;2024-01-07T12:31:06;99241.38;;;10.25;80.73
76868;BME280;66168;45.478;11.060;2024-01-07T12:33:37;99243.79;;;10.28;80.77
76868;BME280;66168;45.478;11.060;2024-01-07T12:36:06;99241.84;;;10.28;80.14
76868;BME280;66168;45.478;11.060;2024-01-07T12:38:37;99240.17;;;10.21;80.02
76868;BME280;66168;45.478;11.060;2024-01-07T12:41:05;99239.97;;;10.16;80.58
76868;BME280;66168;45.478;11.060;2024-01-07T12:43:32;99243.53;;;10.15;80.76
76868;BME280;66168;45.478;11.060;2024-01-07T12:45:59;99236.05;;;10.15;80.94
76868;BME280;66168;45.478;11.060;2024-01-07T12:48:32;99236.52;;;10.18;80.64
76868;BME280;66168;45.478;11.060;2024-01-07T12:51:00;99237.39;;;10.22;80.50
76868;BME280;66168;45.478;11.060;2024-01-07T12:53:28;99237.98;;;10.27;80.37
76868;BME280;66168;45.478;11.060;2024-01-07T12:55:55;99231.61;;;10.29;79.92
76868;BME280;66168;45.478;11.060;2024-01-07T12:58:22;99235.73;;;10.33;79.64
76868;BME280;66168;45.478;11.060;2024-01-07T13:00:49;99235.48;;;10.35;79.46